Pioneer Knutsen — LMIK — position and weather

sailwx.info

Track history (hours):
 
Tides and Currents Weather Stations Pressure Air Temp Water Temp Dewpoint Dewpoint Depression Visibility Wind Speed Wind Dir Waves Ship Positions

Pioneer Knutsen

Last reported at 2017-Mar-28 15:33 UTC. Time now 2017-Mar-28 15:48 UTC.
Position N 63°51' E 009°39'.

Length 70 m; draft 3.6 m.

Type: Ship. MMSI: 259393000.

Date/timePositionNaut miles runAvg speedWind from/ knotsBaromVisibWave heightAir tempDewpointWater temp
2017-Mar-28 15:33N 63°51' E 009°39'1111.0
2017-Mar-28 14:33N 63°41' E 009°29'1110.7
2017-Mar-28 13:33N 63°32' E 009°15'1312.4
2017-Mar-28 12:33N 63°27' E 008°49'1212.5
2017-Mar-28 11:33N 63°22' E 008°24'1312.8
2017-Mar-28 10:33N 63°14' E 008°01'1211.8
2017-Mar-28 09:34N 63°06' E 007°42'2 2.4
2017-Mar-28 08:31N 63°06' E 007°48'0 0.0
2017-Mar-28 07:31N 63°06' E 007°48'9 9.3
2017-Mar-28 06:33N 63°05' E 007°28'1212.4
2017-Mar-28 05:33N 63°00' E 007°03'1211.5
2017-Mar-28 04:33N 62°53' E 006°44'1212.6
2017-Mar-28 03:34N 62°42' E 006°29'1312.5
2017-Mar-28 02:33N 62°33' E 006°10'1111.1
2017-Mar-28 01:33N 62°22' E 006°07'1211.8
2017-Mar-28 00:33N 62°13' E 005°51'1211.9
2017-Mar-27 23:33N 62°12' E 005°26'1110.6
2017-Mar-27 22:33N 62°12' E 005°04'1010.5
2017-Mar-27 21:34N 62°02' E 005°09'1010.2
2017-Mar-27 20:33N 61°52' E 005°14'1010.4
2017-Mar-27 19:33N 61°45' E 004°59'1111.3
2017-Mar-27 18:33N 61°33' E 005°00'1211.9
2017-Mar-27 17:33N 61°22' E 004°49'1111.1
2017-Mar-27 16:33N 61°13' E 004°59'1111.0
2017-Mar-27 15:33N 61°02' E 004°54'1111.4
2017-Mar-27 14:33N 60°51' E 004°46'1211.8
2017-Mar-27 13:33N 60°40' E 004°52'7 6.7
2017-Mar-27 12:33N 60°33' E 004°53'0 0.0
2017-Mar-27 11:32N 60°33' E 004°53'0 0.0
2017-Mar-27 10:32N 60°33' E 004°53'0 0.0
2017-Mar-27 09:31N 60°33' E 004°53'0 0.0
2017-Mar-27 08:31N 60°33' E 004°53'0 0.0
2017-Mar-27 07:31N 60°33' E 004°53'0 0.0
2017-Mar-27 06:33N 60°33' E 004°53'0 0.0
2017-Mar-27 05:33N 60°33' E 004°53'0 0.0
2017-Mar-27 04:32N 60°33' E 004°53'0 0.0
2017-Mar-27 03:32N 60°33' E 004°53'0 0.0
2017-Mar-27 02:31N 60°33' E 004°53'2 1.7
2017-Mar-27 01:33N 60°35' E 004°53'9 9.0
2017-Mar-27 00:33N 60°43' E 004°48'9 8.8
2017-Mar-26 23:33N 60°52' E 004°47'9 8.9
2017-Mar-26 22:33N 61°01' E 004°49'10 9.8
2017-Mar-26 21:33N 61°09' E 005°01'1010.3
2017-Mar-26 20:33N 61°17' E 004°49'10 9.5
2017-Mar-26 19:33N 61°26' E 004°54'9 9.1
2017-Mar-26 18:33N 61°35' E 004°57'10 9.8
2017-Mar-26 17:32N 61°45' E 004°59'1010.0
2017-Mar-26 16:33N 61°51' E 005°16'8 7.8
2017-Mar-26 15:33N 61°58' E 005°09'1010.1
2017-Mar-26 14:33N 62°08' E 005°05'7 6.8
2017-Mar-26 13:33N 62°13' E 005°14'9 8.8
2017-Mar-26 12:33N 62°12' E 005°33'1010.1
2017-Mar-26 11:32N 62°14' E 005°54'10 9.9
2017-Mar-26 10:33N 62°21' E 006°07'9 8.5
2017-Mar-26 09:33N 62°30' E 006°08'9 9.0
2017-Mar-26 08:33N 62°37' E 006°19'9 8.6
2017-Mar-26 07:34N 62°44' E 006°31'8 8.1
2017-Mar-26 06:33N 62°51' E 006°40'6 6.0
2017-Mar-26 05:33N 62°56' E 006°47'5 5.3
2017-Mar-26 04:33N 62°60' E 006°55'5 4.9
2017-Mar-26 03:34N 63°01' E 007°06'5 5.2
2017-Mar-26 02:33N 63°03' E 007°16'6 5.5
2017-Mar-26 01:34N 63°05' E 007°28'6 5.8
2017-Mar-26 00:34N 63°08' E 007°38'6 5.8
2017-Mar-25 23:33N 63°12' E 007°49'7 6.7
2017-Mar-25 22:33N 63°15' E 008°02'8 7.9
2017-Mar-25 21:33N 63°19' E 008°16'8 7.7
2017-Mar-25 20:33N 63°24' E 008°30'8 7.8
2017-Mar-25 19:33N 63°27' E 008°46'8 7.8
2017-Mar-25 18:33N 63°29' E 009°03'7 7.1
2017-Mar-25 17:33N 63°33' E 009°17'7 7.3
2017-Mar-25 16:33N 63°38' E 009°29'9 9.3
2017-Mar-25 15:32N 63°47' E 009°33'9 8.9
2017-Mar-25 14:33N 63°54' E 009°46'9 8.9
2017-Mar-25 13:33N 64°03' E 009°48'9 9.1
2017-Mar-25 12:32N 64°08' E 010°05'9 9.0
2017-Mar-25 11:33N 64°15' E 010°18'9 9.1
2017-Mar-25 10:33N 64°24' E 010°25'8 7.9
2017-Mar-25 09:33N 64°30' E 010°34'7 7.2
2017-Mar-25 08:33N 64°37' E 010°42'8 8.0
2017-Mar-25 07:33N 64°43' E 010°53'9 9.3
2017-Mar-25 06:33N 64°49' E 011°09'10 9.7
2017-Mar-25 05:33N 64°56' E 011°26'1010.1
2017-Mar-25 04:34N 65°03' E 011°43'1110.7
2017-Mar-25 03:33N 65°13' E 011°54'10 9.7
2017-Mar-25 02:34N 65°22' E 012°00'10 9.4
2017-Mar-25 01:33N 65°32' E 012°02'1110.8
2017-Mar-25 00:33N 65°41' E 012°15'1010.4
2017-Mar-24 23:33N 65°50' E 012°29'1010.3
2017-Mar-24 22:33N 65°58' E 012°45'9 8.9
2017-Mar-24 21:33N 65°55' E 013°06'4 4.2
2017-Mar-24 20:33N 65°51' E 013°11'0 0.0
2017-Mar-24 19:33N 65°51' E 013°11'0 0.0
2017-Mar-24 18:33N 65°51' E 013°11'0 0.0
2017-Mar-24 17:32N 65°51' E 013°11'0 0.0
2017-Mar-24 16:32N 65°51' E 013°11'0 0.0
2017-Mar-24 15:31N 65°51' E 013°11'0 0.0
2017-Mar-24 14:33N 65°51' E 013°11'7 6.9
2017-Mar-24 13:33N 65°56' E 012°60'9 8.8
2017-Mar-24 12:33N 65°55' E 012°38'1211.8
2017-Mar-24 11:33N 65°46' E 012°20'1211.9
2017-Mar-24 10:33N 65°35' E 012°08'1110.9
2017-Mar-24 09:33N 65°25' E 011°58'10 9.8
2017-Mar-24 08:33N 65°15' E 011°56'1211.9
2017-Mar-24 07:33N 65°04' E 011°45'1211.5
2017-Mar-24 06:34N 64°56' E 011°26'1212.0
2017-Mar-24 05:33N 64°48' E 011°05'1111.5
2017-Mar-24 04:33N 64°39' E 010°47'1211.5
2017-Mar-24 03:33N 64°30' E 010°33'10 9.9
2017-Mar-24 02:33N 64°20' E 010°27'1111.0
2017-Mar-24 01:33N 64°12' E 010°10'1111.1
2017-Mar-24 00:33N 64°04' E 009°52'10 9.8
2017-Mar-23 23:32N 63°54' E 009°46'1111.0
2017-Mar-23 22:32N 63°45' E 009°32'1111.2
2017-Mar-23 21:33N 63°35' E 009°24'1212.4
2017-Mar-23 20:33N 63°29' E 008°60'1212.0
2017-Mar-23 19:33N 63°24' E 008°35'1212.0
2017-Mar-23 18:33N 63°17' E 008°13'1212.2
2017-Mar-23 17:33N 63°11' E 007°49'1111.5
2017-Mar-23 16:33N 63°05' E 007°28'1111.0
2017-Mar-23 15:33N 63°01' E 007°05'1010.0
2017-Mar-23 14:33N 62°55' E 006°48'1111.1
2017-Mar-23 13:34N 62°46' E 006°34'1211.5
2017-Mar-23 12:33N 62°37' E 006°19'1111.1
2017-Mar-23 11:33N 62°28' E 006°04'10 9.6
2017-Mar-23 10:33N 62°18' E 006°03'1111.0
2017-Mar-23 09:33N 62°12' E 005°44'1010.4
2017-Mar-23 08:33N 62°10' E 005°22'8 8.1
2017-Mar-23 07:33N 62°11' E 005°05'9 8.7
2017-Mar-23 06:33N 62°02' E 005°09'10 9.9
2017-Mar-23 05:33N 61°53' E 005°11'7 7.0
2017-Mar-23 04:34N 61°47' E 005°04'1110.5
2017-Mar-23 03:33N 61°36' E 004°58'1110.7
2017-Mar-23 02:33N 61°26' E 004°58'9 8.5
2017-Mar-23 01:33N 61°17' E 004°57'10 9.9
2017-Mar-23 00:33N 61°07' E 005°02'1110.7
2017-Mar-22 23:33N 60°59' E 004°47'1110.7
2017-Mar-22 22:33N 60°49' E 004°44'1110.9
2017-Mar-22 21:33N 60°39' E 004°53'6 5.8
2017-Mar-22 20:33N 60°33' E 004°53'0 0.0
2017-Mar-22 19:33N 60°33' E 004°53'0 0.0
2017-Mar-22 18:32N 60°33' E 004°53'0 0.0
2017-Mar-22 17:32N 60°33' E 004°53'0 0.0
2017-Mar-22 16:32N 60°33' E 004°53'0 0.0
2017-Mar-22 15:31N 60°33' E 004°53'0 0.0
2017-Mar-22 14:31N 60°33' E 004°53'0 0.0
2017-Mar-22 13:33N 60°33' E 004°53'2 2.0
2017-Mar-22 12:32N 60°35' E 004°53'1211.5
2017-Mar-22 11:33N 60°46' E 004°46'1110.9
2017-Mar-22 10:33N 60°57' E 004°45'1110.7
2017-Mar-22 09:32N 61°05' E 004°60'1010.4
2017-Mar-22 08:33N 61°15' E 004°55'9 8.7
2017-Mar-22 07:33N 61°23' E 005°00'1110.6
2017-Mar-22 06:33N 61°34' E 004°59'1110.7
2017-Mar-22 05:33N 61°45' E 004°59'1010.2
2017-Mar-22 04:32N 61°51' E 005°16'9 8.6
2017-Mar-22 03:33N 61°59' E 005°09'1010.4
2017-Mar-22 02:33N 62°09' E 005°02'7 7.2
2017-Mar-22 01:33N 62°14' E 005°13'7 7.5
2017-Mar-22 00:33N 62°12' E 005°28'9 9.3
2017-Mar-21 23:33N 62°12' E 005°48'10 9.7
2017-Mar-21 22:33N 62°19' E 006°03'9 8.6
2017-Mar-21 21:33N 62°28' E 006°03'9 9.1
2017-Mar-21 20:33N 62°35' E 006°14'9 9.6
2017-Mar-21 19:33N 62°42' E 006°28'1010.3
2017-Mar-21 18:33N 62°51' E 006°40'10 9.6
2017-Mar-21 17:33N 62°59' E 006°52'8 7.8
2017-Mar-21 16:33N 63°01' E 007°08'8 7.6
2017-Mar-21 15:33N 63°04' E 007°24'6 6.0
2017-Mar-21 14:33N 63°07' E 007°35'7 7.1
2017-Mar-21 13:33N 63°01' E 007°43'8 8.0
2017-Mar-21 12:33N 62°59' E 008°00'1111.1
2017-Mar-21 11:33N 62°49' E 008°12'1111.2
2017-Mar-21 10:33N 62°42' E 008°32'2 1.5
2017-Mar-21 09:30N 62°41' E 008°33'0 0.0
2017-Mar-21 08:33N 62°41' E 008°33'0 0.0
2017-Mar-21 07:32N 62°41' E 008°33'0 0.0
2017-Mar-21 06:32N 62°41' E 008°33'5 5.2
2017-Mar-21 05:33N 62°45' E 008°26'10 9.9
2017-Mar-21 04:32N 62°51' E 008°09'9 9.3
2017-Mar-21 03:33N 62°59' E 007°57'4 4.3
2017-Mar-21 02:33N 63°02' E 007°52'9 9.2
2017-Mar-21 01:33N 63°11' E 007°48'1010.4
2017-Mar-21 00:33N 63°17' E 008°08'1010.4
2017-Mar-20 23:33N 63°23' E 008°26'1110.7
2017-Mar-20 22:33N 63°27' E 008°49'1110.6
2017-Mar-20 21:33N 63°31' E 009°10'1010.2
2017-Mar-20 20:33N 63°38' E 009°28'10 9.6
2017-Mar-20 19:33N 63°47' E 009°33'3 2.8
2017-Mar-20 18:31N 63°49' E 009°38'0 0.0
2017-Mar-20 17:31N 63°49' E 009°38'0 0.0
2017-Mar-20 16:34N 63°49' E 009°38'0 0.0
2017-Mar-20 15:33N 63°49' E 009°38'7 6.9
2017-Mar-20 14:33N 63°43' E 009°31'1211.6
2017-Mar-20 13:33N 63°33' E 009°18'1312.9
2017-Mar-20 12:33N 63°27' E 008°52'1312.8
2017-Mar-20 11:33N 63°22' E 008°26'1313.1
2017-Mar-20 10:34N 63°15' E 008°02'1312.7
2017-Mar-20 09:34N 63°08' E 007°38'1212.1
2017-Mar-20 08:34N 63°02' E 007°15'1211.9
2017-Mar-20 07:34N 62°58' E 006°51'1312.6
2017-Mar-20 06:32N 62°47' E 006°35'1212.2
2017-Mar-20 05:33N 62°37' E 006°19'1211.6
2017-Mar-20 04:33N 62°28' E 006°04'1110.7
2017-Mar-20 03:33N 62°18' E 006°01'1211.6
2017-Mar-20 02:32N 62°11' E 005°40'1010.2
2017-Mar-20 01:33N 62°11' E 005°18'7 7.2
2017-Mar-20 00:33N 62°08' E 005°05'1211.7
2017-Mar-19 23:33N 61°56' E 005°08'7 7.5
2017-Mar-19 22:33N 61°49' E 005°09'1111.2
2017-Mar-19 21:33N 61°38' E 004°59'1211.7
2017-Mar-19 20:32N 61°27' E 004°59'9 9.5
2017-Mar-19 19:33N 61°17' E 004°57'1111.3
2017-Mar-19 18:33N 61°06' E 005°02'1211.7
2017-Mar-19 17:33N 60°58' E 004°45'1211.9
2017-Mar-19 16:33N 60°46' E 004°47'1312.8
2017-Mar-19 15:33N 60°33' E 004°54'1 0.6
2017-Mar-19 14:32N 60°33' E 004°53'0 0.0
2017-Mar-19 13:32N 60°33' E 004°53'0 0.0
2017-Mar-19 12:32N 60°33' E 004°53'0 0.0
2017-Mar-19 11:31N 60°33' E 004°53'0 0.0
2017-Mar-19 10:31N 60°33' E 004°53'0 0.0
2017-Mar-19 09:33N 60°33' E 004°53'0 0.0
2017-Mar-19 08:31N 60°33' E 004°53'6 6.1
2017-Mar-19 07:33N 60°39' E 004°51'9 9.1
2017-Mar-19 06:32N 60°47' E 004°45'9 9.4
2017-Mar-19 05:33N 60°57' E 004°45'1010.0
2017-Mar-19 04:33N 61°04' E 004°59'9 9.0
2017-Mar-19 03:33N 61°13' E 004°57'8 8.0
2017-Mar-19 02:33N 61°21' E 005°02'9 9.4
2017-Mar-19 01:33N 61°30' E 004°59'9 9.4
2017-Mar-19 00:33N 61°39' E 004°59'9 9.2
2017-Mar-18 23:33N 61°48' E 005°06'6 5.7
2017-Mar-18 22:33N 61°53' E 005°10'9 9.2
2017-Mar-18 21:33N 62°03' E 005°08'9 9.0
2017-Mar-18 20:33N 62°11' E 005°02'7 6.8
2017-Mar-18 19:33N 62°13' E 005°16'1010.2
2017-Mar-18 18:33N 62°11' E 005°38'1211.5
2017-Mar-18 17:33N 62°17' E 005°59'10 9.9
2017-Mar-18 16:33N 62°27' E 006°02'  
Track history (hours):
 
Tides and Currents Weather Stations Pressure Air Temp Water Temp Dewpoint Dewpoint Depression Visibility Wind Speed Wind Dir Waves Ship Positions

Pioneer Knutsen

Last reported at 2017-Mar-28 15:33 UTC. Time now 2017-Mar-28 15:48 UTC.
Position N 63°51' E 009°39'.

Length 70 m; draft 3.6 m.

Type: Ship. MMSI: 259393000.

Date/timePositionNaut miles runAvg speedWind from/ knotsBaromVisibWave heightAir tempDewpointWater temp
2017-Mar-28 15:33N 63°51' E 009°39'1111.0
2017-Mar-28 14:33N 63°41' E 009°29'1110.7
2017-Mar-28 13:33N 63°32' E 009°15'1312.4
2017-Mar-28 12:33N 63°27' E 008°49'1212.5
2017-Mar-28 11:33N 63°22' E 008°24'1312.8
2017-Mar-28 10:33N 63°14' E 008°01'1211.8
2017-Mar-28 09:34N 63°06' E 007°42'2 2.4
2017-Mar-28 08:31N 63°06' E 007°48'0 0.0
2017-Mar-28 07:31N 63°06' E 007°48'9 9.3
2017-Mar-28 06:33N 63°05' E 007°28'1212.4
2017-Mar-28 05:33N 63°00' E 007°03'1211.5
2017-Mar-28 04:33N 62°53' E 006°44'1212.6
2017-Mar-28 03:34N 62°42' E 006°29'1312.5
2017-Mar-28 02:33N 62°33' E 006°10'1111.1
2017-Mar-28 01:33N 62°22' E 006°07'1211.8
2017-Mar-28 00:33N 62°13' E 005°51'1211.9
2017-Mar-27 23:33N 62°12' E 005°26'1110.6
2017-Mar-27 22:33N 62°12' E 005°04'1010.5
2017-Mar-27 21:34N 62°02' E 005°09'1010.2
2017-Mar-27 20:33N 61°52' E 005°14'1010.4
2017-Mar-27 19:33N 61°45' E 004°59'1111.3
2017-Mar-27 18:33N 61°33' E 005°00'1211.9
2017-Mar-27 17:33N 61°22' E 004°49'1111.1
2017-Mar-27 16:33N 61°13' E 004°59'1111.0
2017-Mar-27 15:33N 61°02' E 004°54'1111.4
2017-Mar-27 14:33N 60°51' E 004°46'1211.8
2017-Mar-27 13:33N 60°40' E 004°52'7 6.7
2017-Mar-27 12:33N 60°33' E 004°53'0 0.0
2017-Mar-27 11:32N 60°33' E 004°53'0 0.0
2017-Mar-27 10:32N 60°33' E 004°53'0 0.0
2017-Mar-27 09:31N 60°33' E 004°53'0 0.0
2017-Mar-27 08:31N 60°33' E 004°53'0 0.0
2017-Mar-27 07:31N 60°33' E 004°53'0 0.0
2017-Mar-27 06:33N 60°33' E 004°53'0 0.0
2017-Mar-27 05:33N 60°33' E 004°53'0 0.0
2017-Mar-27 04:32N 60°33' E 004°53'0 0.0
2017-Mar-27 03:32N 60°33' E 004°53'0 0.0
2017-Mar-27 02:31N 60°33' E 004°53'2 1.7
2017-Mar-27 01:33N 60°35' E 004°53'9 9.0
2017-Mar-27 00:33N 60°43' E 004°48'9 8.8
2017-Mar-26 23:33N 60°52' E 004°47'9 8.9
2017-Mar-26 22:33N 61°01' E 004°49'10 9.8
2017-Mar-26 21:33N 61°09' E 005°01'1010.3
2017-Mar-26 20:33N 61°17' E 004°49'10 9.5
2017-Mar-26 19:33N 61°26' E 004°54'9 9.1
2017-Mar-26 18:33N 61°35' E 004°57'10 9.8
2017-Mar-26 17:32N 61°45' E 004°59'1010.0
2017-Mar-26 16:33N 61°51' E 005°16'8 7.8
2017-Mar-26 15:33N 61°58' E 005°09'1010.1
2017-Mar-26 14:33N 62°08' E 005°05'7 6.8
2017-Mar-26 13:33N 62°13' E 005°14'9 8.8
2017-Mar-26 12:33N 62°12' E 005°33'1010.1
2017-Mar-26 11:32N 62°14' E 005°54'10 9.9
2017-Mar-26 10:33N 62°21' E 006°07'9 8.5
2017-Mar-26 09:33N 62°30' E 006°08'9 9.0
2017-Mar-26 08:33N 62°37' E 006°19'9 8.6
2017-Mar-26 07:34N 62°44' E 006°31'8 8.1
2017-Mar-26 06:33N 62°51' E 006°40'6 6.0
2017-Mar-26 05:33N 62°56' E 006°47'5 5.3
2017-Mar-26 04:33N 62°60' E 006°55'5 4.9
2017-Mar-26 03:34N 63°01' E 007°06'5 5.2
2017-Mar-26 02:33N 63°03' E 007°16'6 5.5
2017-Mar-26 01:34N 63°05' E 007°28'6 5.8
2017-Mar-26 00:34N 63°08' E 007°38'6 5.8
2017-Mar-25 23:33N 63°12' E 007°49'7 6.7
2017-Mar-25 22:33N 63°15' E 008°02'8 7.9
2017-Mar-25 21:33N 63°19' E 008°16'8 7.7
2017-Mar-25 20:33N 63°24' E 008°30'8 7.8
2017-Mar-25 19:33N 63°27' E 008°46'8 7.8
2017-Mar-25 18:33N 63°29' E 009°03'7 7.1
2017-Mar-25 17:33N 63°33' E 009°17'7 7.3
2017-Mar-25 16:33N 63°38' E 009°29'9 9.3
2017-Mar-25 15:32N 63°47' E 009°33'9 8.9
2017-Mar-25 14:33N 63°54' E 009°46'9 8.9
2017-Mar-25 13:33N 64°03' E 009°48'9 9.1
2017-Mar-25 12:32N 64°08' E 010°05'9 9.0
2017-Mar-25 11:33N 64°15' E 010°18'9 9.1
2017-Mar-25 10:33N 64°24' E 010°25'8 7.9
2017-Mar-25 09:33N 64°30' E 010°34'7 7.2
2017-Mar-25 08:33N 64°37' E 010°42'8 8.0
2017-Mar-25 07:33N 64°43' E 010°53'9 9.3
2017-Mar-25 06:33N 64°49' E 011°09'10 9.7
2017-Mar-25 05:33N 64°56' E 011°26'1010.1
2017-Mar-25 04:34N 65°03' E 011°43'1110.7
2017-Mar-25 03:33N 65°13' E 011°54'10 9.7
2017-Mar-25 02:34N 65°22' E 012°00'10 9.4
2017-Mar-25 01:33N 65°32' E 012°02'1110.8
2017-Mar-25 00:33N 65°41' E 012°15'1010.4
2017-Mar-24 23:33N 65°50' E 012°29'1010.3
2017-Mar-24 22:33N 65°58' E 012°45'9 8.9
2017-Mar-24 21:33N 65°55' E 013°06'4 4.2
2017-Mar-24 20:33N 65°51' E 013°11'0 0.0
2017-Mar-24 19:33N 65°51' E 013°11'0 0.0
2017-Mar-24 18:33N 65°51' E 013°11'0 0.0
2017-Mar-24 17:32N 65°51' E 013°11'0 0.0
2017-Mar-24 16:32N 65°51' E 013°11'0 0.0
2017-Mar-24 15:31N 65°51' E 013°11'0 0.0
2017-Mar-24 14:33N 65°51' E 013°11'7 6.9
2017-Mar-24 13:33N 65°56' E 012°60'9 8.8
2017-Mar-24 12:33N 65°55' E 012°38'1211.8
2017-Mar-24 11:33N 65°46' E 012°20'1211.9
2017-Mar-24 10:33N 65°35' E 012°08'1110.9
2017-Mar-24 09:33N 65°25' E 011°58'10 9.8
2017-Mar-24 08:33N 65°15' E 011°56'1211.9
2017-Mar-24 07:33N 65°04' E 011°45'1211.5
2017-Mar-24 06:34N 64°56' E 011°26'1212.0
2017-Mar-24 05:33N 64°48' E 011°05'1111.5
2017-Mar-24 04:33N 64°39' E 010°47'1211.5
2017-Mar-24 03:33N 64°30' E 010°33'10 9.9
2017-Mar-24 02:33N 64°20' E 010°27'1111.0
2017-Mar-24 01:33N 64°12' E 010°10'1111.1
2017-Mar-24 00:33N 64°04' E 009°52'10 9.8
2017-Mar-23 23:32N 63°54' E 009°46'1111.0
2017-Mar-23 22:32N 63°45' E 009°32'1111.2
2017-Mar-23 21:33N 63°35' E 009°24'1212.4
2017-Mar-23 20:33N 63°29' E 008°60'1212.0
2017-Mar-23 19:33N 63°24' E 008°35'1212.0
2017-Mar-23 18:33N 63°17' E 008°13'1212.2
2017-Mar-23 17:33N 63°11' E 007°49'1111.5
2017-Mar-23 16:33N 63°05' E 007°28'1111.0
2017-Mar-23 15:33N 63°01' E 007°05'1010.0
2017-Mar-23 14:33N 62°55' E 006°48'1111.1
2017-Mar-23 13:34N 62°46' E 006°34'1211.5
2017-Mar-23 12:33N 62°37' E 006°19'1111.1
2017-Mar-23 11:33N 62°28' E 006°04'10 9.6
2017-Mar-23 10:33N 62°18' E 006°03'1111.0
2017-Mar-23 09:33N 62°12' E 005°44'1010.4
2017-Mar-23 08:33N 62°10' E 005°22'8 8.1
2017-Mar-23 07:33N 62°11' E 005°05'9 8.7
2017-Mar-23 06:33N 62°02' E 005°09'10 9.9
2017-Mar-23 05:33N 61°53' E 005°11'7 7.0
2017-Mar-23 04:34N 61°47' E 005°04'1110.5
2017-Mar-23 03:33N 61°36' E 004°58'1110.7
2017-Mar-23 02:33N 61°26' E 004°58'9 8.5
2017-Mar-23 01:33N 61°17' E 004°57'10 9.9
2017-Mar-23 00:33N 61°07' E 005°02'1110.7
2017-Mar-22 23:33N 60°59' E 004°47'1110.7
2017-Mar-22 22:33N 60°49' E 004°44'1110.9
2017-Mar-22 21:33N 60°39' E 004°53'6 5.8
2017-Mar-22 20:33N 60°33' E 004°53'0 0.0
2017-Mar-22 19:33N 60°33' E 004°53'0 0.0
2017-Mar-22 18:32N 60°33' E 004°53'0 0.0
2017-Mar-22 17:32N 60°33' E 004°53'0 0.0
2017-Mar-22 16:32N 60°33' E 004°53'0 0.0
2017-Mar-22 15:31N 60°33' E 004°53'0 0.0
2017-Mar-22 14:31N 60°33' E 004°53'0 0.0
2017-Mar-22 13:33N 60°33' E 004°53'2 2.0
2017-Mar-22 12:32N 60°35' E 004°53'1211.5
2017-Mar-22 11:33N 60°46' E 004°46'1110.9
2017-Mar-22 10:33N 60°57' E 004°45'1110.7
2017-Mar-22 09:32N 61°05' E 004°60'1010.4
2017-Mar-22 08:33N 61°15' E 004°55'9 8.7
2017-Mar-22 07:33N 61°23' E 005°00'1110.6
2017-Mar-22 06:33N 61°34' E 004°59'1110.7
2017-Mar-22 05:33N 61°45' E 004°59'1010.2
2017-Mar-22 04:32N 61°51' E 005°16'9 8.6
2017-Mar-22 03:33N 61°59' E 005°09'1010.4
2017-Mar-22 02:33N 62°09' E 005°02'7 7.2
2017-Mar-22 01:33N 62°14' E 005°13'7 7.5
2017-Mar-22 00:33N 62°12' E 005°28'9 9.3
2017-Mar-21 23:33N 62°12' E 005°48'10 9.7
2017-Mar-21 22:33N 62°19' E 006°03'9 8.6
2017-Mar-21 21:33N 62°28' E 006°03'9 9.1
2017-Mar-21 20:33N 62°35' E 006°14'9 9.6
2017-Mar-21 19:33N 62°42' E 006°28'1010.3
2017-Mar-21 18:33N 62°51' E 006°40'10 9.6
2017-Mar-21 17:33N 62°59' E 006°52'8 7.8
2017-Mar-21 16:33N 63°01' E 007°08'8 7.6
2017-Mar-21 15:33N 63°04' E 007°24'6 6.0
2017-Mar-21 14:33N 63°07' E 007°35'7 7.1
2017-Mar-21 13:33N 63°01' E 007°43'8 8.0
2017-Mar-21 12:33N 62°59' E 008°00'1111.1
2017-Mar-21 11:33N 62°49' E 008°12'1111.2
2017-Mar-21 10:33N 62°42' E 008°32'2 1.5
2017-Mar-21 09:30N 62°41' E 008°33'0 0.0
2017-Mar-21 08:33N 62°41' E 008°33'0 0.0
2017-Mar-21 07:32N 62°41' E 008°33'0 0.0
2017-Mar-21 06:32N 62°41' E 008°33'5 5.2
2017-Mar-21 05:33N 62°45' E 008°26'10 9.9
2017-Mar-21 04:32N 62°51' E 008°09'9 9.3
2017-Mar-21 03:33N 62°59' E 007°57'4 4.3
2017-Mar-21 02:33N 63°02' E 007°52'9 9.2
2017-Mar-21 01:33N 63°11' E 007°48'1010.4
2017-Mar-21 00:33N 63°17' E 008°08'1010.4
2017-Mar-20 23:33N 63°23' E 008°26'1110.7
2017-Mar-20 22:33N 63°27' E 008°49'1110.6
2017-Mar-20 21:33N 63°31' E 009°10'1010.2
2017-Mar-20 20:33N 63°38' E 009°28'10 9.6
2017-Mar-20 19:33N 63°47' E 009°33'3 2.8
2017-Mar-20 18:31N 63°49' E 009°38'0 0.0
2017-Mar-20 17:31N 63°49' E 009°38'0 0.0
2017-Mar-20 16:34N 63°49' E 009°38'0 0.0
2017-Mar-20 15:33N 63°49' E 009°38'7 6.9
2017-Mar-20 14:33N 63°43' E 009°31'1211.6
2017-Mar-20 13:33N 63°33' E 009°18'1312.9
2017-Mar-20 12:33N 63°27' E 008°52'1312.8
2017-Mar-20 11:33N 63°22' E 008°26'1313.1
2017-Mar-20 10:34N 63°15' E 008°02'1312.7
2017-Mar-20 09:34N 63°08' E 007°38'1212.1
2017-Mar-20 08:34N 63°02' E 007°15'1211.9
2017-Mar-20 07:34N 62°58' E 006°51'1312.6
2017-Mar-20 06:32N 62°47' E 006°35'1212.2
2017-Mar-20 05:33N 62°37' E 006°19'1211.6
2017-Mar-20 04:33N 62°28' E 006°04'1110.7
2017-Mar-20 03:33N 62°18' E 006°01'1211.6
2017-Mar-20 02:32N 62°11' E 005°40'1010.2
2017-Mar-20 01:33N 62°11' E 005°18'7 7.2
2017-Mar-20 00:33N 62°08' E 005°05'1211.7
2017-Mar-19 23:33N 61°56' E 005°08'7 7.5
2017-Mar-19 22:33N 61°49' E 005°09'1111.2
2017-Mar-19 21:33N 61°38' E 004°59'1211.7
2017-Mar-19 20:32N 61°27' E 004°59'9 9.5
2017-Mar-19 19:33N 61°17' E 004°57'1111.3
2017-Mar-19 18:33N 61°06' E 005°02'1211.7
2017-Mar-19 17:33N 60°58' E 004°45'1211.9
2017-Mar-19 16:33N 60°46' E 004°47'1312.8
2017-Mar-19 15:33N 60°33' E 004°54'1 0.6
2017-Mar-19 14:32N 60°33' E 004°53'0 0.0
2017-Mar-19 13:32N 60°33' E 004°53'0 0.0
2017-Mar-19 12:32N 60°33' E 004°53'0 0.0
2017-Mar-19 11:31N 60°33' E 004°53'0 0.0
2017-Mar-19 10:31N 60°33' E 004°53'0 0.0
2017-Mar-19 09:33N 60°33' E 004°53'0 0.0
2017-Mar-19 08:31N 60°33' E 004°53'6 6.1
2017-Mar-19 07:33N 60°39' E 004°51'9 9.1
2017-Mar-19 06:32N 60°47' E 004°45'9 9.4
2017-Mar-19 05:33N 60°57' E 004°45'1010.0
2017-Mar-19 04:33N 61°04' E 004°59'9 9.0
2017-Mar-19 03:33N 61°13' E 004°57'8 8.0
2017-Mar-19 02:33N 61°21' E 005°02'9 9.4
2017-Mar-19 01:33N 61°30' E 004°59'9 9.4
2017-Mar-19 00:33N 61°39' E 004°59'9 9.2
2017-Mar-18 23:33N 61°48' E 005°06'6 5.7
2017-Mar-18 22:33N 61°53' E 005°10'9 9.2
2017-Mar-18 21:33N 62°03' E 005°08'9 9.0
2017-Mar-18 20:33N 62°11' E 005°02'7 6.8
2017-Mar-18 19:33N 62°13' E 005°16'1010.2
2017-Mar-18 18:33N 62°11' E 005°38'1211.5
2017-Mar-18 17:33N 62°17' E 005°59'10 9.9
2017-Mar-18 16:33N 62°27' E 006°02'  

Dump ship's entire track history